To NAV CANADA Home Page Login to a new session Search on AWWS site Feedback and Comments Disclaimer Vers la page française équivalente Tips FAQ What's new on the site To the Forecasts and Observations / NOTAM section To "File a Flight Plan" website Publications and other links Update of the User's profile FIC Telephone Numbers My Weather Data Folder Route Weather Data Regional Weather Data Local Weather Data To the Forecasts and Observations / NOTAM section
Request Generated 04/21/2014 at 04:35:07 UTC . Weather information available at that time is displayed.

METAR/TAF

GREENWOOD/NS    

METAR CYZX 210400Z 18002KT 15SM SKC 02/M01 A3035 RMK WNDY HILL 27007KT SLP278=
METAR CYZX 210300Z 22004KT 15SM SKC 03/M02 A3036 RMK WNDY HILL 29012KT SLP281=
METAR CYZX 210200Z 23006KT 15SM FEW150 05/M01 A3036 RMK AC2 WNDY HILL 29009G15KT SLP283=

TAF CYZX 202330Z 2100/2124 VRB03KT P6SM SCT150 SCT250
FM210300 23005KT P6SM BKN100
BECMG 2113/2115 23012KT
RMK NXT FCST BY 210600Z=
Your time UTC time
Weather data provided by Environment Canada and NAV CANADA